sensor_id;sensor_type;location;lat;lon;timestamp;P1;durP1;ratioP1;P2;durP2;ratioP2
47455;SDS011;33202;48.512;-2.780;2024-02-21T00:00:02;5.32;;;3.05;;
47455;SDS011;33202;48.512;-2.780;2024-02-21T00:02:28;7.13;;;3.90;;
47455;SDS011;33202;48.512;-2.780;2024-02-21T00:04:54;3.75;;;2.30;;
47455;SDS011;33202;48.512;-2.780;2024-02-21T00:07:20;3.90;;;1.95;;
47455;SDS011;33202;48.512;-2.780;2024-02-21T00:09:46;4.03;;;2.17;;
47455;SDS011;33202;48.512;-2.780;2024-02-21T00:12:12;3.22;;;2.20;;
47455;SDS011;33202;48.512;-2.780;2024-02-21T00:14:41;5.82;;;2.30;;
47455;SDS011;33202;48.512;-2.780;2024-02-21T00:17:08;5.88;;;1.73;;
47455;SDS011;33202;48.512;-2.780;2024-02-21T00:19:34;3.90;;;1.80;;
47455;SDS011;33202;48.512;-2.780;2024-02-21T00:22:01;3.97;;;1.90;;
47455;SDS011;33202;48.512;-2.780;2024-02-21T00:24:27;4.80;;;1.73;;
47455;SDS011;33202;48.512;-2.780;2024-02-21T00:26:53;5.95;;;2.50;;
47455;SDS011;33202;48.512;-2.780;2024-02-21T00:29:19;4.57;;;1.75;;
47455;SDS011;33202;48.512;-2.780;2024-02-21T00:31:45;5.30;;;2.60;;
47455;SDS011;33202;48.512;-2.780;2024-02-21T00:34:11;5.65;;;2.47;;
47455;SDS011;33202;48.512;-2.780;2024-02-21T00:36:38;3.97;;;2.30;;
47455;SDS011;33202;48.512;-2.780;2024-02-21T00:39:04;7.22;;;3.60;;
47455;SDS011;33202;48.512;-2.780;2024-02-21T00:41:31;7.80;;;4.05;;
47455;SDS011;33202;48.512;-2.780;2024-02-21T00:43:57;5.65;;;1.73;;
47455;SDS011;33202;48.512;-2.780;2024-02-21T00:46:23;7.55;;;4.10;;
47455;SDS011;33202;48.512;-2.780;2024-02-21T00:48:49;6.88;;;3.63;;
47455;SDS011;33202;48.512;-2.780;2024-02-21T00:51:15;5.35;;;1.77;;
47455;SDS011;33202;48.512;-2.780;2024-02-21T00:53:42;6.55;;;1.98;;
47455;SDS011;33202;48.512;-2.780;2024-02-21T00:56:08;8.03;;;2.07;;
47455;SDS011;33202;48.512;-2.780;2024-02-21T00:58:34;4.53;;;1.55;;
47455;SDS011;33202;48.512;-2.780;2024-02-21T01:01:00;6.95;;;2.20;;
47455;SDS011;33202;48.512;-2.780;2024-02-21T01:03:27;5.50;;;2.00;;
47455;SDS011;33202;48.512;-2.780;2024-02-21T01:05:53;4.85;;;1.35;;
47455;SDS011;33202;48.512;-2.780;2024-02-21T01:08:19;7.75;;;1.73;;
47455;SDS011;33202;48.512;-2.780;2024-02-21T01:10:45;6.80;;;2.05;;
47455;SDS011;33202;48.512;-2.780;2024-02-21T01:13:11;4.45;;;2.00;;
47455;SDS011;33202;48.512;-2.780;2024-02-21T01:15:37;5.40;;;2.38;;
47455;SDS011;33202;48.512;-2.780;2024-02-21T01:18:03;4.97;;;1.77;;
47455;SDS011;33202;48.512;-2.780;2024-02-21T01:20:30;8.32;;;2.78;;
47455;SDS011;33202;48.512;-2.780;2024-02-21T01:22:56;9.20;;;2.33;;
47455;SDS011;33202;48.512;-2.780;2024-02-21T01:25:22;9.50;;;1.92;;
47455;SDS011;33202;48.512;-2.780;2024-02-21T01:27:48;5.23;;;1.90;;
47455;SDS011;33202;48.512;-2.780;2024-02-21T01:30:14;5.15;;;1.83;;
47455;SDS011;33202;48.512;-2.780;2024-02-21T01:32:40;5.18;;;1.83;;
47455;SDS011;33202;48.512;-2.780;2024-02-21T01:35:07;10.48;;;2.40;;
47455;SDS011;33202;48.512;-2.780;2024-02-21T01:37:33;7.18;;;1.85;;
47455;SDS011;33202;48.512;-2.780;2024-02-21T01:39:59;4.75;;;1.80;;
47455;SDS011;33202;48.512;-2.780;2024-02-21T01:42:25;7.88;;;2.20;;
47455;SDS011;33202;48.512;-2.780;2024-02-21T01:44:51;8.23;;;2.60;;
47455;SDS011;33202;48.512;-2.780;2024-02-21T01:47:17;11.23;;;3.67;;
47455;SDS011;33202;48.512;-2.780;2024-02-21T01:49:43;6.40;;;2.65;;
47455;SDS011;33202;48.512;-2.780;2024-02-21T01:52:10;7.57;;;2.17;;
47455;SDS011;33202;48.512;-2.780;2024-02-21T01:54:38;7.38;;;2.88;;
47455;SDS011;33202;48.512;-2.780;2024-02-21T01:57:04;6.93;;;2.22;;
47455;SDS011;33202;48.512;-2.780;2024-02-21T01:59:31;6.53;;;1.67;;
47455;SDS011;33202;48.512;-2.780;2024-02-21T02:01:57;6.22;;;1.33;;
47455;SDS011;33202;48.512;-2.780;2024-02-21T02:04:24;6.65;;;1.17;;
47455;SDS011;33202;48.512;-2.780;2024-02-21T02:06:50;3.83;;;1.40;;
47455;SDS011;33202;48.512;-2.780;2024-02-21T02:09:16;4.30;;;1.27;;
47455;SDS011;33202;48.512;-2.780;2024-02-21T02:11:42;8.63;;;1.42;;
47455;SDS011;33202;48.512;-2.780;2024-02-21T02:14:09;6.17;;;1.20;;
47455;SDS011;33202;48.512;-2.780;2024-02-21T02:16:35;6.53;;;1.23;;
47455;SDS011;33202;48.512;-2.780;2024-02-21T02:19:01;6.50;;;1.33;;
47455;SDS011;33202;48.512;-2.780;2024-02-21T02:21:32;7.57;;;1.13;;
47455;SDS011;33202;48.512;-2.780;2024-02-21T02:23:59;7.50;;;1.92;;
47455;SDS011;33202;48.512;-2.780;2024-02-21T02:26:25;5.88;;;1.55;;
47455;SDS011;33202;48.512;-2.780;2024-02-21T02:28:52;9.50;;;1.50;;
47455;SDS011;33202;48.512;-2.780;2024-02-21T02:31:18;5.82;;;1.63;;
47455;SDS011;33202;48.512;-2.780;2024-02-21T02:33:44;7.95;;;1.42;;
47455;SDS011;33202;48.512;-2.780;2024-02-21T02:36:10;6.10;;;1.48;;
47455;SDS011;33202;48.512;-2.780;2024-02-21T02:38:36;3.95;;;1.02;;
47455;SDS011;33202;48.512;-2.780;2024-02-21T02:41:02;5.57;;;1.50;;
47455;SDS011;33202;48.512;-2.780;2024-02-21T02:43:28;7.68;;;1.23;;
47455;SDS011;33202;48.512;-2.780;2024-02-21T02:45:54;4.80;;;1.10;;
47455;SDS011;33202;48.512;-2.780;2024-02-21T02:48:21;8.05;;;1.75;;
47455;SDS011;33202;48.512;-2.780;2024-02-21T02:50:47;5.28;;;1.00;;
47455;SDS011;33202;48.512;-2.780;2024-02-21T02:55:40;4.00;;;1.25;;
47455;SDS011;33202;48.512;-2.780;2024-02-21T02:58:06;6.22;;;1.10;;
47455;SDS011;33202;48.512;-2.780;2024-02-21T03:00:32;5.72;;;1.00;;
47455;SDS011;33202;48.512;-2.780;2024-02-21T03:03:01;6.43;;;1.42;;
47455;SDS011;33202;48.512;-2.780;2024-02-21T03:05:30;5.95;;;1.20;;
47455;SDS011;33202;48.512;-2.780;2024-02-21T03:07:56;3.97;;;1.05;;
47455;SDS011;33202;48.512;-2.780;2024-02-21T03:10:22;7.18;;;1.00;;
47455;SDS011;33202;48.512;-2.780;2024-02-21T03:12:48;4.43;;;0.90;;
47455;SDS011;33202;48.512;-2.780;2024-02-21T03:15:14;7.18;;;1.27;;
47455;SDS011;33202;48.512;-2.780;2024-02-21T03:17:40;5.95;;;0.90;;
47455;SDS011;33202;48.512;-2.780;2024-02-21T03:20:07;9.45;;;2.22;;
47455;SDS011;33202;48.512;-2.780;2024-02-21T03:22:36;4.03;;;0.85;;
47455;SDS011;33202;48.512;-2.780;2024-02-21T03:25:03;5.97;;;1.17;;
47455;SDS011;33202;48.512;-2.780;2024-02-21T03:27:29;5.95;;;1.58;;
47455;SDS011;33202;48.512;-2.780;2024-02-21T03:29:55;8.07;;;1.92;;
47455;SDS011;33202;48.512;-2.780;2024-02-21T03:32:21;7.45;;;1.88;;
47455;SDS011;33202;48.512;-2.780;2024-02-21T03:34:47;7.93;;;1.17;;
47455;SDS011;33202;48.512;-2.780;2024-02-21T03:37:13;6.25;;;1.17;;
47455;SDS011;33202;48.512;-2.780;2024-02-21T03:39:39;5.65;;;1.08;;
47455;SDS011;33202;48.512;-2.780;2024-02-21T03:42:05;5.07;;;1.20;;
47455;SDS011;33202;48.512;-2.780;2024-02-21T03:44:31;6.05;;;1.35;;
47455;SDS011;33202;48.512;-2.780;2024-02-21T03:47:00;5.82;;;1.20;;
47455;SDS011;33202;48.512;-2.780;2024-02-21T03:49:27;9.52;;;1.60;;
47455;SDS011;33202;48.512;-2.780;2024-02-21T03:51:53;5.70;;;1.43;;
47455;SDS011;33202;48.512;-2.780;2024-02-21T03:54:19;3.90;;;1.10;;
47455;SDS011;33202;48.512;-2.780;2024-02-21T03:56:45;8.50;;;1.42;;
47455;SDS011;33202;48.512;-2.780;2024-02-21T03:59:15;4.93;;;1.33;;
47455;SDS011;33202;48.512;-2.780;2024-02-21T04:01:41;7.65;;;1.30;;
47455;SDS011;33202;48.512;-2.780;2024-02-21T04:04:07;6.22;;;1.38;;
47455;SDS011;33202;48.512;-2.780;2024-02-21T04:06:33;8.45;;;1.67;;
47455;SDS011;33202;48.512;-2.780;2024-02-21T04:08:59;6.00;;;1.15;;
47455;SDS011;33202;48.512;-2.780;2024-02-21T04:11:25;10.95;;;1.35;;
47455;SDS011;33202;48.512;-2.780;2024-02-21T04:13:51;5.05;;;1.40;;
47455;SDS011;33202;48.512;-2.780;2024-02-21T04:16:17;9.38;;;1.50;;
47455;SDS011;33202;48.512;-2.780;2024-02-21T04:18:43;6.97;;;1.20;;
47455;SDS011;33202;48.512;-2.780;2024-02-21T04:21:09;8.68;;;2.03;;
47455;SDS011;33202;48.512;-2.780;2024-02-21T04:23:35;6.25;;;1.15;;
47455;SDS011;33202;48.512;-2.780;2024-02-21T04:26:01;6.00;;;1.05;;
47455;SDS011;33202;48.512;-2.780;2024-02-21T04:28:27;9.48;;;1.38;;
47455;SDS011;33202;48.512;-2.780;2024-02-21T04:30:53;9.00;;;1.60;;
47455;SDS011;33202;48.512;-2.780;2024-02-21T04:33:19;8.80;;;1.42;;
47455;SDS011;33202;48.512;-2.780;2024-02-21T04:35:45;5.97;;;1.38;;
47455;SDS011;33202;48.512;-2.780;2024-02-21T04:38:12;10.70;;;1.40;;
47455;SDS011;33202;48.512;-2.780;2024-02-21T04:40:39;5.22;;;1.20;;
47455;SDS011;33202;48.512;-2.780;2024-02-21T04:43:05;6.22;;;1.20;;
47455;SDS011;33202;48.512;-2.780;2024-02-21T04:45:31;6.57;;;1.23;;
47455;SDS011;33202;48.512;-2.780;2024-02-21T04:47:57;6.18;;;1.05;;
47455;SDS011;33202;48.512;-2.780;2024-02-21T04:50:23;5.50;;;1.00;;
47455;SDS011;33202;48.512;-2.780;2024-02-21T04:52:49;7.25;;;1.25;;
47455;SDS011;33202;48.512;-2.780;2024-02-21T04:55:15;9.77;;;1.48;;
47455;SDS011;33202;48.512;-2.780;2024-02-21T04:57:41;8.50;;;1.80;;
47455;SDS011;33202;48.512;-2.780;2024-02-21T05:00:07;6.22;;;1.27;;
47455;SDS011;33202;48.512;-2.780;2024-02-21T05:02:34;8.13;;;1.40;;
47455;SDS011;33202;48.512;-2.780;2024-02-21T05:05:00;9.38;;;2.08;;
47455;SDS011;33202;48.512;-2.780;2024-02-21T05:07:27;4.50;;;1.65;;
47455;SDS011;33202;48.512;-2.780;2024-02-21T05:09:53;10.02;;;1.70;;
47455;SDS011;33202;48.512;-2.780;2024-02-21T05:12:19;3.80;;;1.17;;
47455;SDS011;33202;48.512;-2.780;2024-02-21T05:14:45;10.07;;;1.90;;
47455;SDS011;33202;48.512;-2.780;2024-02-21T05:17:11;9.63;;;1.50;;
47455;SDS011;33202;48.512;-2.780;2024-02-21T05:19:37;9.38;;;1.38;;
47455;SDS011;33202;48.512;-2.780;2024-02-21T05:22:03;8.93;;;1.45;;
47455;SDS011;33202;48.512;-2.780;2024-02-21T05:24:29;11.25;;;1.90;;
47455;SDS011;33202;48.512;-2.780;2024-02-21T05:26:55;7.28;;;1.60;;
47455;SDS011;33202;48.512;-2.780;2024-02-21T05:29:21;7.68;;;1.40;;
47455;SDS011;33202;48.512;-2.780;2024-02-21T05:34:16;7.50;;;1.45;;
47455;SDS011;33202;48.512;-2.780;2024-02-21T05:36:42;6.95;;;1.27;;
47455;SDS011;33202;48.512;-2.780;2024-02-21T05:39:08;9.07;;;2.45;;
47455;SDS011;33202;48.512;-2.780;2024-02-21T05:41:34;9.15;;;1.60;;
47455;SDS011;33202;48.512;-2.780;2024-02-21T05:44:00;5.63;;;1.30;;
47455;SDS011;33202;48.512;-2.780;2024-02-21T05:46:26;3.25;;;1.23;;
47455;SDS011;33202;48.512;-2.780;2024-02-21T05:48:52;8.70;;;1.45;;
47455;SDS011;33202;48.512;-2.780;2024-02-21T05:51:18;6.22;;;1.45;;
47455;SDS011;33202;48.512;-2.780;2024-02-21T05:53:44;8.30;;;1.38;;
47455;SDS011;33202;48.512;-2.780;2024-02-21T05:56:11;10.45;;;2.20;;
47455;SDS011;33202;48.512;-2.780;2024-02-21T05:58:37;8.35;;;1.40;;
47455;SDS011;33202;48.512;-2.780;2024-02-21T06:01:03;9.18;;;1.90;;
47455;SDS011;33202;48.512;-2.780;2024-02-21T06:03:29;7.50;;;1.63;;
47455;SDS011;33202;48.512;-2.780;2024-02-21T06:05:55;10.15;;;1.80;;
47455;SDS011;33202;48.512;-2.780;2024-02-21T06:08:21;6.88;;;1.38;;
47455;SDS011;33202;48.512;-2.780;2024-02-21T06:10:47;6.40;;;1.55;;
47455;SDS011;33202;48.512;-2.780;2024-02-21T06:13:14;11.63;;;1.90;;
47455;SDS011;33202;48.512;-2.780;2024-02-21T06:15:40;7.28;;;1.50;;
47455;SDS011;33202;48.512;-2.780;2024-02-21T06:18:06;8.40;;;1.75;;
47455;SDS011;33202;48.512;-2.780;2024-02-21T06:20:32;8.35;;;1.42;;
47455;SDS011;33202;48.512;-2.780;2024-02-21T06:22:58;10.73;;;1.80;;
47455;SDS011;33202;48.512;-2.780;2024-02-21T06:25:24;7.43;;;1.52;;
47455;SDS011;33202;48.512;-2.780;2024-02-21T06:27:50;13.50;;;1.65;;
47455;SDS011;33202;48.512;-2.780;2024-02-21T06:30:16;9.00;;;1.77;;
47455;SDS011;33202;48.512;-2.780;2024-02-21T06:32:42;12.93;;;1.80;;
47455;SDS011;33202;48.512;-2.780;2024-02-21T06:35:08;7.80;;;1.60;;
47455;SDS011;33202;48.512;-2.780;2024-02-21T06:37:34;13.82;;;1.63;;
47455;SDS011;33202;48.512;-2.780;2024-02-21T06:40:00;12.05;;;1.80;;
47455;SDS011;33202;48.512;-2.780;2024-02-21T06:42:26;9.07;;;1.85;;
47455;SDS011;33202;48.512;-2.780;2024-02-21T06:44:52;7.30;;;1.70;;
47455;SDS011;33202;48.512;-2.780;2024-02-21T06:47:18;9.98;;;1.98;;
47455;SDS011;33202;48.512;-2.780;2024-02-21T06:49:48;8.88;;;1.77;;
47455;SDS011;33202;48.512;-2.780;2024-02-21T06:52:14;12.30;;;1.98;;
47455;SDS011;33202;48.512;-2.780;2024-02-21T06:54:42;7.88;;;2.08;;
47455;SDS011;33202;48.512;-2.780;2024-02-21T06:57:08;9.55;;;2.08;;
47455;SDS011;33202;48.512;-2.780;2024-02-21T06:59:34;6.18;;;2.03;;
47455;SDS011;33202;48.512;-2.780;2024-02-21T07:02:00;10.07;;;2.00;;
47455;SDS011;33202;48.512;-2.780;2024-02-21T07:04:26;8.68;;;2.20;;
47455;SDS011;33202;48.512;-2.780;2024-02-21T07:06:54;7.88;;;1.70;;
47455;SDS011;33202;48.512;-2.780;2024-02-21T07:09:20;9.88;;;2.03;;
47455;SDS011;33202;48.512;-2.780;2024-02-21T07:11:46;8.50;;;2.00;;
47455;SDS011;33202;48.512;-2.780;2024-02-21T07:14:13;7.25;;;1.75;;
47455;SDS011;33202;48.512;-2.780;2024-02-21T07:16:40;7.90;;;1.85;;
47455;SDS011;33202;48.512;-2.780;2024-02-21T07:19:06;6.53;;;1.30;;
47455;SDS011;33202;48.512;-2.780;2024-02-21T07:21:32;8.15;;;1.73;;
47455;SDS011;33202;48.512;-2.780;2024-02-21T07:23:58;5.03;;;1.63;;
47455;SDS011;33202;48.512;-2.780;2024-02-21T07:26:25;7.10;;;1.63;;
47455;SDS011;33202;48.512;-2.780;2024-02-21T07:28:51;6.03;;;1.55;;
47455;SDS011;33202;48.512;-2.780;2024-02-21T07:31:17;4.90;;;1.48;;
47455;SDS011;33202;48.512;-2.780;2024-02-21T07:33:43;8.38;;;1.60;;
47455;SDS011;33202;48.512;-2.780;2024-02-21T07:36:10;6.68;;;1.52;;
47455;SDS011;33202;48.512;-2.780;2024-02-21T07:38:36;5.45;;;1.92;;
47455;SDS011;33202;48.512;-2.780;2024-02-21T07:41:02;9.07;;;1.50;;
47455;SDS011;33202;48.512;-2.780;2024-02-21T07:43:29;8.65;;;1.65;;
47455;SDS011;33202;48.512;-2.780;2024-02-21T07:45:55;7.10;;;1.60;;
47455;SDS011;33202;48.512;-2.780;2024-02-21T07:48:21;6.28;;;1.70;;
47455;SDS011;33202;48.512;-2.780;2024-02-21T07:50:51;6.88;;;1.92;;
47455;SDS011;33202;48.512;-2.780;2024-02-21T07:53:17;7.05;;;2.38;;
47455;SDS011;33202;48.512;-2.780;2024-02-21T07:55:43;9.63;;;1.70;;
47455;SDS011;33202;48.512;-2.780;2024-02-21T07:58:09;7.13;;;1.73;;
47455;SDS011;33202;48.512;-2.780;2024-02-21T08:00:35;8.65;;;2.03;;
47455;SDS011;33202;48.512;-2.780;2024-02-21T08:03:02;6.90;;;2.10;;
47455;SDS011;33202;48.512;-2.780;2024-02-21T08:05:28;11.27;;;2.38;;
47455;SDS011;33202;48.512;-2.780;2024-02-21T08:07:55;11.32;;;2.10;;
47455;SDS011;33202;48.512;-2.780;2024-02-21T08:10:21;9.32;;;1.80;;
47455;SDS011;33202;48.512;-2.780;2024-02-21T08:12:47;5.65;;;1.65;;
47455;SDS011;33202;48.512;-2.780;2024-02-21T08:15:13;6.10;;;1.70;;
47455;SDS011;33202;48.512;-2.780;2024-02-21T08:17:40;6.47;;;1.40;;
47455;SDS011;33202;48.512;-2.780;2024-02-21T08:20:06;6.28;;;1.60;;
47455;SDS011;33202;48.512;-2.780;2024-02-21T08:22:32;6.80;;;1.67;;
47455;SDS011;33202;48.512;-2.780;2024-02-21T08:24:58;6.97;;;1.45;;
47455;SDS011;33202;48.512;-2.780;2024-02-21T08:27:24;7.63;;;2.30;;
47455;SDS011;33202;48.512;-2.780;2024-02-21T08:29:50;10.10;;;1.75;;
47455;SDS011;33202;48.512;-2.780;2024-02-21T08:32:16;6.05;;;1.67;;
47455;SDS011;33202;48.512;-2.780;2024-02-21T08:34:42;8.05;;;1.77;;
47455;SDS011;33202;48.512;-2.780;2024-02-21T08:37:08;6.32;;;1.70;;
47455;SDS011;33202;48.512;-2.780;2024-02-21T08:39:35;6.80;;;1.85;;
47455;SDS011;33202;48.512;-2.780;2024-02-21T08:42:01;5.22;;;1.20;;
47455;SDS011;33202;48.512;-2.780;2024-02-21T08:44:27;6.82;;;1.52;;
47455;SDS011;33202;48.512;-2.780;2024-02-21T08:46:54;7.07;;;1.48;;
47455;SDS011;33202;48.512;-2.780;2024-02-21T08:49:20;6.70;;;1.25;;
47455;SDS011;33202;48.512;-2.780;2024-02-21T08:51:46;7.10;;;2.45;;
47455;SDS011;33202;48.512;-2.780;2024-02-21T08:54:12;2.58;;;1.27;;
47455;SDS011;33202;48.512;-2.780;2024-02-21T08:56:38;5.10;;;1.50;;
47455;SDS011;33202;48.512;-2.780;2024-02-21T08:59:04;5.45;;;1.75;;
47455;SDS011;33202;48.512;-2.780;2024-02-21T09:01:30;5.35;;;1.38;;
47455;SDS011;33202;48.512;-2.780;2024-02-21T09:03:56;6.28;;;1.30;;
47455;SDS011;33202;48.512;-2.780;2024-02-21T09:06:22;3.70;;;0.93;;
47455;SDS011;33202;48.512;-2.780;2024-02-21T09:08:48;4.88;;;1.40;;
47455;SDS011;33202;48.512;-2.780;2024-02-21T09:11:14;5.50;;;1.33;;
47455;SDS011;33202;48.512;-2.780;2024-02-21T09:13:40;4.47;;;1.33;;
47455;SDS011;33202;48.512;-2.780;2024-02-21T09:16:06;5.13;;;1.23;;
47455;SDS011;33202;48.512;-2.780;2024-02-21T09:18:34;5.03;;;1.60;;
47455;SDS011;33202;48.512;-2.780;2024-02-21T09:21:00;4.80;;;1.55;;
47455;SDS011;33202;48.512;-2.780;2024-02-21T09:23:26;6.68;;;1.50;;
47455;SDS011;33202;48.512;-2.780;2024-02-21T09:25:52;4.53;;;1.40;;
47455;SDS011;33202;48.512;-2.780;2024-02-21T09:28:20;3.70;;;1.30;;
47455;SDS011;33202;48.512;-2.780;2024-02-21T09:30:46;8.43;;;2.10;;
47455;SDS011;33202;48.512;-2.780;2024-02-21T09:33:12;3.17;;;1.25;;
47455;SDS011;33202;48.512;-2.780;2024-02-21T09:35:38;3.27;;;1.20;;
47455;SDS011;33202;48.512;-2.780;2024-02-21T09:38:04;4.07;;;1.13;;
47455;SDS011;33202;48.512;-2.780;2024-02-21T09:40:30;4.88;;;1.33;;
47455;SDS011;33202;48.512;-2.780;2024-02-21T09:43:05;4.78;;;1.58;;
47455;SDS011;33202;48.512;-2.780;2024-02-21T09:45:32;5.30;;;1.38;;
47455;SDS011;33202;48.512;-2.780;2024-02-21T09:50:27;3.67;;;1.20;;
47455;SDS011;33202;48.512;-2.780;2024-02-21T09:52:54;2.35;;;1.20;;
47455;SDS011;33202;48.512;-2.780;2024-02-21T09:55:21;4.30;;;1.50;;
47455;SDS011;33202;48.512;-2.780;2024-02-21T09:57:48;4.35;;;1.20;;
47455;SDS011;33202;48.512;-2.780;2024-02-21T10:00:15;4.40;;;1.40;;
47455;SDS011;33202;48.512;-2.780;2024-02-21T10:02:46;3.65;;;1.30;;
47455;SDS011;33202;48.512;-2.780;2024-02-21T10:05:13;3.00;;;1.10;;
47455;SDS011;33202;48.512;-2.780;2024-02-21T10:07:39;4.00;;;1.50;;
47455;SDS011;33202;48.512;-2.780;2024-02-21T10:10:05;2.78;;;1.33;;
47455;SDS011;33202;48.512;-2.780;2024-02-21T10:12:32;2.75;;;1.10;;
47455;SDS011;33202;48.512;-2.780;2024-02-21T10:15:04;2.65;;;1.23;;
47455;SDS011;33202;48.512;-2.780;2024-02-21T10:17:30;4.18;;;1.50;;
47455;SDS011;33202;48.512;-2.780;2024-02-21T10:20:06;3.50;;;1.30;;
47455;SDS011;33202;48.512;-2.780;2024-02-21T10:22:33;4.30;;;1.15;;
47455;SDS011;33202;48.512;-2.780;2024-02-21T10:25:07;5.30;;;1.50;;
47455;SDS011;33202;48.512;-2.780;2024-02-21T10:27:33;3.58;;;1.40;;
47455;SDS011;33202;48.512;-2.780;2024-02-21T10:30:00;3.30;;;1.30;;
47455;SDS011;33202;48.512;-2.780;2024-02-21T10:32:26;5.60;;;1.30;;
47455;SDS011;33202;48.512;-2.780;2024-02-21T10:35:00;3.13;;;1.52;;
47455;SDS011;33202;48.512;-2.780;2024-02-21T10:37:26;4.50;;;1.15;;
47455;SDS011;33202;48.512;-2.780;2024-02-21T10:39:53;2.35;;;1.33;;
47455;SDS011;33202;48.512;-2.780;2024-02-21T10:42:21;3.35;;;1.58;;
47455;SDS011;33202;48.512;-2.780;2024-02-21T10:47:13;4.15;;;1.83;;
47455;SDS011;33202;48.512;-2.780;2024-02-21T10:49:41;4.18;;;1.45;;
47455;SDS011;33202;48.512;-2.780;2024-02-21T10:54:55;3.65;;;1.42;;
47455;SDS011;33202;48.512;-2.780;2024-02-21T10:57:25;2.95;;;1.27;;
47455;SDS011;33202;48.512;-2.780;2024-02-21T10:59:55;4.55;;;1.63;;
47455;SDS011;33202;48.512;-2.780;2024-02-21T11:02:21;8.07;;;1.67;;
47455;SDS011;33202;48.512;-2.780;2024-02-21T11:04:48;3.60;;;1.40;;
47455;SDS011;33202;48.512;-2.780;2024-02-21T11:07:14;3.70;;;1.90;;
47455;SDS011;33202;48.512;-2.780;2024-02-21T11:09:50;4.97;;;1.47;;
47455;SDS011;33202;48.512;-2.780;2024-02-21T11:12:19;2.53;;;1.40;;
47455;SDS011;33202;48.512;-2.780;2024-02-21T11:14:46;3.22;;;1.30;;
47455;SDS011;33202;48.512;-2.780;2024-02-21T11:17:18;6.10;;;1.73;;
47455;SDS011;33202;48.512;-2.780;2024-02-21T11:19:47;2.53;;;1.33;;
47455;SDS011;33202;48.512;-2.780;2024-02-21T11:22:14;3.60;;;1.52;;
47455;SDS011;33202;48.512;-2.780;2024-02-21T11:24:41;3.85;;;1.58;;
47455;SDS011;33202;48.512;-2.780;2024-02-21T11:27:08;4.15;;;1.48;;
47455;SDS011;33202;48.512;-2.780;2024-02-21T11:29:47;4.10;;;1.25;;
47455;SDS011;33202;48.512;-2.780;2024-02-21T11:32:17;4.03;;;1.52;;
47455;SDS011;33202;48.512;-2.780;2024-02-21T11:35:19;6.60;;;1.75;;
47455;SDS011;33202;48.512;-2.780;2024-02-21T11:37:38;4.88;;;1.25;;
47455;SDS011;33202;48.512;-2.780;2024-02-21T11:40:05;4.53;;;1.40;;
47455;SDS011;33202;48.512;-2.780;2024-02-21T11:42:35;5.03;;;1.40;;
47455;SDS011;33202;48.512;-2.780;2024-02-21T11:45:01;5.82;;;1.55;;
47455;SDS011;33202;48.512;-2.780;2024-02-21T11:47:28;4.72;;;1.88;;
47455;SDS011;33202;48.512;-2.780;2024-02-21T11:49:54;5.35;;;1.83;;
47455;SDS011;33202;48.512;-2.780;2024-02-21T11:52:23;8.00;;;2.20;;
47455;SDS011;33202;48.512;-2.780;2024-02-21T11:54:50;5.47;;;2.33;;
47455;SDS011;33202;48.512;-2.780;2024-02-21T11:57:17;4.95;;;1.85;;
47455;SDS011;33202;48.512;-2.780;2024-02-21T11:59:46;7.00;;;1.93;;
47455;SDS011;33202;48.512;-2.780;2024-02-21T12:02:14;5.70;;;2.17;;
47455;SDS011;33202;48.512;-2.780;2024-02-21T12:04:40;6.93;;;1.88;;
47455;SDS011;33202;48.512;-2.780;2024-02-21T12:07:07;9.10;;;2.10;;
47455;SDS011;33202;48.512;-2.780;2024-02-21T12:09:34;6.32;;;2.00;;
47455;SDS011;33202;48.512;-2.780;2024-02-21T12:12:01;9.43;;;2.15;;
47455;SDS011;33202;48.512;-2.780;2024-02-21T12:14:28;7.80;;;1.75;;
47455;SDS011;33202;48.512;-2.780;2024-02-21T12:16:55;5.30;;;1.88;;
47455;SDS011;33202;48.512;-2.780;2024-02-21T12:19:21;5.80;;;1.95;;
47455;SDS011;33202;48.512;-2.780;2024-02-21T12:21:48;6.13;;;1.90;;
47455;SDS011;33202;48.512;-2.780;2024-02-21T12:24:27;5.85;;;2.15;;
47455;SDS011;33202;48.512;-2.780;2024-02-21T12:26:53;4.38;;;2.03;;
47455;SDS011;33202;48.512;-2.780;2024-02-21T12:29:20;4.78;;;1.90;;
47455;SDS011;33202;48.512;-2.780;2024-02-21T12:31:46;6.95;;;1.77;;
47455;SDS011;33202;48.512;-2.780;2024-02-21T12:34:12;5.82;;;1.75;;
47455;SDS011;33202;48.512;-2.780;2024-02-21T12:36:42;3.92;;;1.75;;
47455;SDS011;33202;48.512;-2.780;2024-02-21T12:39:09;5.78;;;2.00;;
47455;SDS011;33202;48.512;-2.780;2024-02-21T12:41:35;5.70;;;2.37;;
47455;SDS011;33202;48.512;-2.780;2024-02-21T12:44:03;6.60;;;1.77;;
47455;SDS011;33202;48.512;-2.780;2024-02-21T12:46:32;5.10;;;1.83;;
47455;SDS011;33202;48.512;-2.780;2024-02-21T12:48:58;4.45;;;1.45;;
47455;SDS011;33202;48.512;-2.780;2024-02-21T12:51:24;4.72;;;1.55;;
47455;SDS011;33202;48.512;-2.780;2024-02-21T12:53:49;4.88;;;1.50;;
47455;SDS011;33202;48.512;-2.780;2024-02-21T12:56:16;4.18;;;1.85;;
47455;SDS011;33202;48.512;-2.780;2024-02-21T12:58:42;5.55;;;1.48;;
47455;SDS011;33202;48.512;-2.780;2024-02-21T13:03:35;4.15;;;1.25;;
47455;SDS011;33202;48.512;-2.780;2024-02-21T13:06:03;3.22;;;1.40;;
47455;SDS011;33202;48.512;-2.780;2024-02-21T13:08:29;2.83;;;1.02;;
47455;SDS011;33202;48.512;-2.780;2024-02-21T13:10:55;4.15;;;2.03;;
47455;SDS011;33202;48.512;-2.780;2024-02-21T13:13:21;2.85;;;1.52;;
47455;SDS011;33202;48.512;-2.780;2024-02-21T13:15:47;3.92;;;2.30;;
47455;SDS011;33202;48.512;-2.780;2024-02-21T13:18:13;2.65;;;1.42;;
47455;SDS011;33202;48.512;-2.780;2024-02-21T13:20:39;3.05;;;1.92;;
47455;SDS011;33202;48.512;-2.780;2024-02-21T13:23:05;6.22;;;3.80;;
47455;SDS011;33202;48.512;-2.780;2024-02-21T13:25:31;3.17;;;1.83;;
47455;SDS011;33202;48.512;-2.780;2024-02-21T13:27:57;2.10;;;1.45;;
47455;SDS011;33202;48.512;-2.780;2024-02-21T13:30:23;1.80;;;1.20;;
47455;SDS011;33202;48.512;-2.780;2024-02-21T13:32:50;1.30;;;0.70;;
47455;SDS011;33202;48.512;-2.780;2024-02-21T13:35:16;3.42;;;1.13;;
47455;SDS011;33202;48.512;-2.780;2024-02-21T13:37:43;1.73;;;0.73;;
47455;SDS011;33202;48.512;-2.780;2024-02-21T13:40:09;3.83;;;2.47;;
47455;SDS011;33202;48.512;-2.780;2024-02-21T13:42:35;2.15;;;1.17;;
47455;SDS011;33202;48.512;-2.780;2024-02-21T13:45:01;1.70;;;0.90;;
47455;SDS011;33202;48.512;-2.780;2024-02-21T13:47:27;1.60;;;0.60;;
47455;SDS011;33202;48.512;-2.780;2024-02-21T13:49:54;1.60;;;0.60;;
47455;SDS011;33202;48.512;-2.780;2024-02-21T13:52:20;1.42;;;0.32;;
47455;SDS011;33202;48.512;-2.780;2024-02-21T13:54:47;1.40;;;0.68;;
47455;SDS011;33202;48.512;-2.780;2024-02-21T13:57:13;1.08;;;0.32;;
47455;SDS011;33202;48.512;-2.780;2024-02-21T13:59:42;2.05;;;0.40;;
47455;SDS011;33202;48.512;-2.780;2024-02-21T14:02:08;0.65;;;0.30;;
47455;SDS011;33202;48.512;-2.780;2024-02-21T14:04:34;1.17;;;0.40;;
47455;SDS011;33202;48.512;-2.780;2024-02-21T14:07:00;0.67;;;0.30;;
47455;SDS011;33202;48.512;-2.780;2024-02-21T14:09:27;0.80;;;0.40;;
47455;SDS011;33202;48.512;-2.780;2024-02-21T14:11:54;0.65;;;0.30;;
47455;SDS011;33202;48.512;-2.780;2024-02-21T14:14:20;0.38;;;0.20;;
47455;SDS011;33202;48.512;-2.780;2024-02-21T14:16:46;0.38;;;0.10;;
47455;SDS011;33202;48.512;-2.780;2024-02-21T14:19:13;0.60;;;0.20;;
47455;SDS011;33202;48.512;-2.780;2024-02-21T14:21:39;0.73;;;0.30;;
47455;SDS011;33202;48.512;-2.780;2024-02-21T14:24:06;0.50;;;0.30;;
47455;SDS011;33202;48.512;-2.780;2024-02-21T14:26:32;0.15;;;0.10;;
47455;SDS011;33202;48.512;-2.780;2024-02-21T14:28:58;1.25;;;0.38;;
47455;SDS011;33202;48.512;-2.780;2024-02-21T14:31:25;1.30;;;0.30;;
47455;SDS011;33202;48.512;-2.780;2024-02-21T14:33:51;1.20;;;0.55;;
47455;SDS011;33202;48.512;-2.780;2024-02-21T14:36:17;1.65;;;0.20;;
47455;SDS011;33202;48.512;-2.780;2024-02-21T14:38:43;0.70;;;0.40;;
47455;SDS011;33202;48.512;-2.780;2024-02-21T14:41:10;0.45;;;0.20;;
47455;SDS011;33202;48.512;-2.780;2024-02-21T14:46:03;0.57;;;0.17;;